Sciota, Illinois
Current Conditions -  °F | °C
As of 8:35 PM on Saturday 22 Nov 2014 (Local Time) from KMQB Reporting Station
Scattered Clouds Scattered Clouds  
Wind Chill: 50°   Ceiling: Unl
Heat Index: 50°   Visibility: 10mi
Dew Point: 46°   Wind: 14mph
Humidity: 87%   Direction: 180°S
Pressure: 29.85"   Gusts: 18mph
Location:  40.56°N, 90.75°W
Report Text: KMQB 230235Z AUTO 18012G16KT 10SM SCT070 10/08 A2985 RMK AO2 T01000080
Loading
Personal Weather Stations






























Interactive Weather Map New forecast layout! Learn more

10-Day Weather Forecast

Advertisements
Track Severe Weather on mobile